createdAt,value
2022-12-31T00:02:25.332Z,10.42
2022-12-31T00:04:51.864Z,10.41
2022-12-31T00:07:19.337Z,10.34
2022-12-31T00:09:48.621Z,10.28
2022-12-31T00:12:16.083Z,10.27
2022-12-31T00:14:43.240Z,10.20
2022-12-31T00:17:09.772Z,10.20
2022-12-31T00:19:36.348Z,10.18
2022-12-31T00:22:02.805Z,10.19
2022-12-31T00:24:29.225Z,10.14
2022-12-31T00:26:55.695Z,10.13
2022-12-31T00:29:22.160Z,10.12
2022-12-31T00:31:48.564Z,10.16
2022-12-31T00:34:15.002Z,10.22
2022-12-31T00:36:41.454Z,10.33
2022-12-31T00:39:07.872Z,10.38
2022-12-31T00:41:34.291Z,10.44
2022-12-31T00:44:00.719Z,10.53
2022-12-31T00:46:27.264Z,10.57
2022-12-31T00:48:53.729Z,10.60
2022-12-31T00:51:20.136Z,10.69
2022-12-31T00:53:46.570Z,10.70
2022-12-31T00:56:13.109Z,10.65
2022-12-31T00:58:39.552Z,10.65
2022-12-31T01:01:06.080Z,10.56
2022-12-31T01:03:32.622Z,10.57
2022-12-31T01:05:59.066Z,10.60
2022-12-31T01:08:25.569Z,10.62
2022-12-31T01:10:52.043Z,10.65
2022-12-31T01:13:18.489Z,10.66
2022-12-31T01:15:44.993Z,10.76
2022-12-31T01:18:11.484Z,10.70
2022-12-31T01:20:38.460Z,10.74
2022-12-31T01:23:04.894Z,10.77
2022-12-31T01:25:31.331Z,10.86
2022-12-31T01:27:57.822Z,10.90
2022-12-31T01:30:24.271Z,10.96
2022-12-31T01:32:50.720Z,10.99
2022-12-31T01:35:17.182Z,10.99
2022-12-31T01:37:43.626Z,11.09
2022-12-31T01:40:10.143Z,11.15
2022-12-31T01:42:36.572Z,11.24
2022-12-31T01:45:02.990Z,11.26
2022-12-31T01:47:29.407Z,11.29
2022-12-31T01:49:55.825Z,11.35
2022-12-31T01:52:22.349Z,11.40
2022-12-31T01:54:48.794Z,11.38
2022-12-31T01:57:15.220Z,11.46
2022-12-31T01:59:41.656Z,11.52
2022-12-31T02:02:08.130Z,11.48
2022-12-31T02:04:34.613Z,11.46
2022-12-31T02:07:01.037Z,11.45
2022-12-31T02:09:27.477Z,11.39
2022-12-31T02:11:53.901Z,11.35
2022-12-31T02:14:20.310Z,11.29
2022-12-31T02:16:46.748Z,11.22
2022-12-31T02:19:13.174Z,11.17
2022-12-31T02:21:39.631Z,11.15
2022-12-31T02:24:06.198Z,11.14
2022-12-31T02:26:35.016Z,11.16
2022-12-31T02:29:01.427Z,11.19
2022-12-31T02:31:29.271Z,11.17
2022-12-31T02:33:55.755Z,11.20
2022-12-31T02:36:22.489Z,11.26
2022-12-31T02:38:48.914Z,11.30
2022-12-31T02:41:15.347Z,11.33
2022-12-31T02:43:41.848Z,11.48
2022-12-31T02:46:09.354Z,11.55
2022-12-31T02:48:36.989Z,11.65
2022-12-31T02:51:05.808Z,11.71
2022-12-31T02:53:32.241Z,11.80
2022-12-31T02:55:59.388Z,11.79
2022-12-31T02:58:25.878Z,11.81
2022-12-31T03:00:55.792Z,11.81
2022-12-31T03:03:22.745Z,11.86
2022-12-31T03:05:49.481Z,11.89
2022-12-31T03:08:18.004Z,11.90
2022-12-31T03:10:45.509Z,11.92
2022-12-31T03:13:11.927Z,12.00
2022-12-31T03:15:39.084Z,12.07
2022-12-31T03:18:05.729Z,12.11
2022-12-31T03:20:34.687Z,12.12
2022-12-31T03:23:03.900Z,12.13
2022-12-31T03:25:30.551Z,12.18
2022-12-31T03:27:58.030Z,12.12
2022-12-31T03:30:24.469Z,12.13
2022-12-31T03:38:22.685Z,12.08
2022-12-31T03:40:50.369Z,12.07
2022-12-31T03:43:23.688Z,12.05
2022-12-31T03:45:52.708Z,12.06
2022-12-31T03:48:42.624Z,12.03
2022-12-31T03:51:18.687Z,12.04
2022-12-31T03:53:49.329Z,12.02
2022-12-31T03:56:15.960Z,12.01
2022-12-31T03:58:46.737Z,12.01
2022-12-31T04:01:13.266Z,11.95
2022-12-31T04:03:40.002Z,11.90
2022-12-31T04:06:07.552Z,11.85
2022-12-31T04:08:34.195Z,11.82
2022-12-31T04:11:09.690Z,11.76
2022-12-31T04:13:36.714Z,11.69
2022-12-31T04:21:23.665Z,11.52
2022-12-31T04:23:50.135Z,11.42
2022-12-31T04:26:16.606Z,11.34
2022-12-31T04:28:47.269Z,11.22
2022-12-31T04:31:13.707Z,11.11
2022-12-31T04:36:26.662Z,11.03
2022-12-31T04:38:53.310Z,11.00
2022-12-31T04:41:29.810Z,10.98
2022-12-31T04:43:56.229Z,10.96
2022-12-31T04:46:26.593Z,10.94
2022-12-31T04:48:53.047Z,10.91
2022-12-31T04:51:24.127Z,10.92
2022-12-31T04:53:51.302Z,10.91
2022-12-31T04:56:18.903Z,10.94
2022-12-31T04:58:45.372Z,10.96
2022-12-31T05:01:12.816Z,10.93
2022-12-31T05:03:40.085Z,10.92
2022-12-31T05:06:20.270Z,10.89
2022-12-31T05:08:50.686Z,10.91
2022-12-31T05:11:18.782Z,10.94
2022-12-31T05:13:58.582Z,10.92
2022-12-31T05:16:26.033Z,10.97
2022-12-31T05:19:00.329Z,11.05
2022-12-31T05:21:27.306Z,11.12
2022-12-31T05:23:54.228Z,11.17
2022-12-31T05:26:21.126Z,11.23
2022-12-31T05:28:52.726Z,11.27
2022-12-31T05:31:21.683Z,11.24
2022-12-31T05:33:49.613Z,11.23
2022-12-31T05:36:16.816Z,11.26
2022-12-31T05:41:34.194Z,11.27
2022-12-31T05:44:00.595Z,11.29
2022-12-31T05:46:27.274Z,11.25
2022-12-31T05:49:03.580Z,11.26
2022-12-31T05:51:31.326Z,11.25
2022-12-31T05:54:03.522Z,11.31
2022-12-31T05:56:30.156Z,11.28
2022-12-31T05:58:59.288Z,11.31
2022-12-31T06:01:25.858Z,11.38
2022-12-31T06:03:52.360Z,11.36
2022-12-31T06:06:18.786Z,11.40
2022-12-31T06:08:46.215Z,11.42
2022-12-31T06:11:12.887Z,11.44
2022-12-31T06:13:42.992Z,11.45
2022-12-31T06:16:11.732Z,11.51
2022-12-31T06:18:40.146Z,11.49
2022-12-31T06:21:06.795Z,11.55
2022-12-31T06:23:37.205Z,11.52
2022-12-31T06:26:03.641Z,11.49
2022-12-31T06:28:30.054Z,11.48
2022-12-31T06:33:39.981Z,11.37
2022-12-31T06:36:10.485Z,11.30
2022-12-31T06:38:37.336Z,11.15
2022-12-31T06:41:04.328Z,11.07
2022-12-31T06:43:31.030Z,11.01
2022-12-31T06:45:58.130Z,10.94
2022-12-31T06:48:24.604Z,10.86
2022-12-31T06:50:51.047Z,10.82
2022-12-31T06:53:18.072Z,10.80
2022-12-31T06:55:44.760Z,10.79
2022-12-31T06:58:11.224Z,10.78
2022-12-31T07:00:39.709Z,10.72
2022-12-31T07:03:06.377Z,10.70
2022-12-31T07:05:32.832Z,10.68
2022-12-31T07:08:00.302Z,10.64
2022-12-31T07:10:29.835Z,10.62
2022-12-31T07:12:56.879Z,10.60
2022-12-31T07:15:23.511Z,10.60
2022-12-31T07:17:50.948Z,10.60
2022-12-31T07:20:17.393Z,10.56
2022-12-31T07:22:43.862Z,10.58
2022-12-31T07:25:10.308Z,10.56
2022-12-31T07:27:36.715Z,10.57
2022-12-31T07:30:05.337Z,10.52
2022-12-31T07:32:31.912Z,10.51
2022-12-31T07:34:58.325Z,10.53
2022-12-31T07:37:24.859Z,10.48
2022-12-31T07:39:51.305Z,10.49
2022-12-31T07:42:17.752Z,10.50
2022-12-31T07:44:44.166Z,10.53
2022-12-31T07:47:10.601Z,10.52
2022-12-31T07:49:37.028Z,10.53
2022-12-31T07:52:03.501Z,10.54
2022-12-31T07:54:29.964Z,10.55
2022-12-31T07:56:56.368Z,10.56
2022-12-31T07:59:24.634Z,10.58
2022-12-31T08:01:51.345Z,10.61
2022-12-31T08:04:17.950Z,10.66
2022-12-31T08:06:44.384Z,10.67
2022-12-31T08:09:10.846Z,10.69
2022-12-31T08:11:37.272Z,10.68
2022-12-31T08:14:03.711Z,10.76
2022-12-31T08:16:30.142Z,10.79
2022-12-31T08:18:56.637Z,10.85
2022-12-31T08:21:23.059Z,10.82
2022-12-31T08:23:49.482Z,10.89
2022-12-31T08:26:15.889Z,10.93
2022-12-31T08:28:42.382Z,10.99
2022-12-31T08:31:08.852Z,11.06
2022-12-31T08:33:35.355Z,11.15
2022-12-31T08:36:01.799Z,11.17
2022-12-31T08:38:28.254Z,11.26
2022-12-31T08:40:54.673Z,11.34
2022-12-31T08:43:21.082Z,11.35
2022-12-31T08:45:47.560Z,11.38
2022-12-31T08:48:14.004Z,11.43
2022-12-31T08:50:40.387Z,11.43
2022-12-31T08:53:06.845Z,11.46
2022-12-31T08:55:33.275Z,11.46
2022-12-31T08:57:59.673Z,11.51
2022-12-31T09:00:26.140Z,11.53
2022-12-31T09:02:52.574Z,11.59
2022-12-31T09:05:18.957Z,11.69
2022-12-31T09:07:45.356Z,11.78
2022-12-31T09:10:11.802Z,11.83
2022-12-31T09:12:38.281Z,11.84
2022-12-31T09:15:04.745Z,11.89
2022-12-31T09:17:32.996Z,11.92
2022-12-31T09:20:00.016Z,11.97
2022-12-31T09:22:30.205Z,11.98
2022-12-31T09:24:56.807Z,12.02
2022-12-31T09:27:27.412Z,12.06
2022-12-31T09:29:54.329Z,12.09
2022-12-31T09:32:20.855Z,12.10
2022-12-31T09:34:47.286Z,12.15
2022-12-31T09:37:13.700Z,12.18
2022-12-31T09:39:40.113Z,12.22
2022-12-31T09:42:06.578Z,12.25
2022-12-31T09:44:32.997Z,12.29
2022-12-31T09:46:59.444Z,12.27
2022-12-31T09:49:25.878Z,12.30
2022-12-31T09:51:52.300Z,12.31
2022-12-31T09:54:18.752Z,12.36
2022-12-31T09:56:45.173Z,12.38
2022-12-31T09:59:11.824Z,12.41
2022-12-31T10:01:38.324Z,12.44
2022-12-31T10:04:04.769Z,12.50
2022-12-31T10:06:31.207Z,12.59
2022-12-31T10:08:57.641Z,12.67
2022-12-31T10:11:24.089Z,12.73
2022-12-31T10:13:50.495Z,12.80
2022-12-31T10:16:17.054Z,12.90
2022-12-31T10:18:43.596Z,12.96
2022-12-31T10:21:10.055Z,13.00
2022-12-31T10:23:36.575Z,13.08
2022-12-31T10:26:03.138Z,13.15
2022-12-31T10:28:29.599Z,13.22
2022-12-31T10:30:56.057Z,13.26
2022-12-31T10:33:22.616Z,13.34
2022-12-31T10:35:49.034Z,13.43
2022-12-31T10:38:15.560Z,13.49
2022-12-31T10:40:41.989Z,13.55
2022-12-31T10:43:08.398Z,13.54
2022-12-31T10:45:34.838Z,13.63
2022-12-31T10:48:01.249Z,13.65
2022-12-31T10:50:27.641Z,13.68
2022-12-31T10:52:54.038Z,13.66
2022-12-31T10:55:22.291Z,13.68
2022-12-31T10:57:48.724Z,13.69
2022-12-31T11:00:15.439Z,13.75
2022-12-31T11:02:41.950Z,13.78
2022-12-31T11:05:19.537Z,13.80
2022-12-31T11:07:45.980Z,13.80
2022-12-31T11:10:12.375Z,13.84
2022-12-31T11:12:38.807Z,13.92
2022-12-31T11:15:05.188Z,13.90
2022-12-31T11:17:31.609Z,13.91
2022-12-31T11:19:58.007Z,13.96
2022-12-31T11:22:24.391Z,13.99
2022-12-31T11:24:50.805Z,14.01
2022-12-31T11:27:17.223Z,13.99
2022-12-31T11:29:43.671Z,14.03
2022-12-31T11:32:10.251Z,14.05
2022-12-31T11:34:36.684Z,14.07
2022-12-31T11:37:03.082Z,14.06
2022-12-31T11:39:31.394Z,14.09
2022-12-31T11:41:58.053Z,14.09
2022-12-31T11:44:24.460Z,14.08
2022-12-31T11:46:50.939Z,14.06
2022-12-31T11:49:17.356Z,14.03
2022-12-31T11:51:49.966Z,13.98
2022-12-31T11:54:16.978Z,14.01
2022-12-31T11:56:43.393Z,14.00
2022-12-31T11:59:13.151Z,14.03
2022-12-31T12:01:42.284Z,14.08
2022-12-31T12:04:09.423Z,14.13
2022-12-31T12:06:37.038Z,14.17
2022-12-31T12:09:03.493Z,14.16
2022-12-31T12:11:29.914Z,14.19
2022-12-31T12:13:56.351Z,14.20
2022-12-31T12:16:22.842Z,14.21
2022-12-31T12:18:49.302Z,14.22
2022-12-31T12:21:15.735Z,14.25
2022-12-31T12:23:42.151Z,14.26
2022-12-31T12:26:08.763Z,14.28
2022-12-31T12:28:39.621Z,14.30
2022-12-31T12:31:10.983Z,14.28
2022-12-31T12:33:38.554Z,14.33
2022-12-31T12:36:06.159Z,14.32
2022-12-31T12:38:33.745Z,14.32
2022-12-31T12:41:00.344Z,14.36
2022-12-31T12:43:26.956Z,14.36
2022-12-31T12:45:54.532Z,14.39
2022-12-31T12:48:21.112Z,14.37
2022-12-31T12:50:47.695Z,14.38
2022-12-31T12:53:14.336Z,14.41
2022-12-31T12:55:41.921Z,14.42
2022-12-31T12:58:09.926Z,14.43
2022-12-31T13:00:38.202Z,14.43
2022-12-31T13:03:04.759Z,14.39
2022-12-31T13:05:32.438Z,14.40
2022-12-31T13:07:59.067Z,14.39
2022-12-31T13:10:25.665Z,14.38
2022-12-31T13:15:38.929Z,14.32
2022-12-31T13:18:05.414Z,14.32
2022-12-31T13:20:32.150Z,14.29
2022-12-31T13:22:58.763Z,14.28
2022-12-31T13:25:25.568Z,14.29
2022-12-31T13:27:53.010Z,14.31
2022-12-31T13:30:19.683Z,14.30
2022-12-31T13:32:46.158Z,14.26
2022-12-31T13:35:12.922Z,14.18
2022-12-31T13:37:39.479Z,14.17
2022-12-31T13:40:06.280Z,14.20
2022-12-31T13:42:32.858Z,14.20
2022-12-31T13:44:59.484Z,14.17
2022-12-31T13:47:26.083Z,14.21
2022-12-31T13:49:52.533Z,14.16
2022-12-31T13:52:19.160Z,14.15
2022-12-31T13:54:46.207Z,14.21
2022-12-31T13:57:12.812Z,14.22
2022-12-31T13:59:40.523Z,14.19
2022-12-31T14:02:08.149Z,14.13
2022-12-31T14:04:35.643Z,14.11
2022-12-31T14:07:03.210Z,14.08
2022-12-31T14:09:30.125Z,14.08
2022-12-31T14:11:58.423Z,14.09
2022-12-31T14:14:25.047Z,14.06
2022-12-31T14:16:52.695Z,14.03
2022-12-31T14:19:20.244Z,14.04
2022-12-31T14:21:46.845Z,14.04
2022-12-31T14:24:13.300Z,14.03
2022-12-31T14:26:40.022Z,14.02
2022-12-31T14:29:07.659Z,14.08
2022-12-31T14:31:35.233Z,14.06
2022-12-31T14:34:02.807Z,14.03
2022-12-31T14:36:29.239Z,14.01
2022-12-31T14:38:56.003Z,13.99
2022-12-31T14:41:22.856Z,13.98
2022-12-31T14:43:50.202Z,13.98
2022-12-31T14:46:17.888Z,13.97
2022-12-31T14:48:45.384Z,13.97
2022-12-31T14:51:11.987Z,13.93
2022-12-31T14:53:39.018Z,13.88
2022-12-31T14:56:06.183Z,13.90
2022-12-31T14:58:33.802Z,13.83
2022-12-31T15:01:01.749Z,13.80
2022-12-31T15:03:30.155Z,13.82
2022-12-31T15:05:57.770Z,13.80
2022-12-31T15:08:24.356Z,13.82
2022-12-31T15:10:50.955Z,13.77
2022-12-31T15:13:18.551Z,13.78
2022-12-31T15:15:45.142Z,13.77
2022-12-31T15:18:11.585Z,13.74
2022-12-31T15:20:38.157Z,13.69
2022-12-31T15:23:04.550Z,13.67
2022-12-31T15:25:40.504Z,13.63
2022-12-31T15:28:09.168Z,13.59
2022-12-31T15:30:35.809Z,13.51
2022-12-31T15:33:02.424Z,13.49
2022-12-31T15:35:31.304Z,13.47
2022-12-31T15:37:57.755Z,13.44
2022-12-31T15:40:24.189Z,13.37
2022-12-31T15:42:50.672Z,13.32
2022-12-31T15:45:17.119Z,13.29
2022-12-31T15:50:25.601Z,13.18
2022-12-31T15:52:53.181Z,13.19
2022-12-31T15:55:20.783Z,13.15
2022-12-31T15:57:48.351Z,13.09
2022-12-31T16:00:17.016Z,13.06
2022-12-31T16:02:45.702Z,13.04
2022-12-31T16:07:53.803Z,12.98
2022-12-31T16:10:21.402Z,12.90
2022-12-31T16:12:50.079Z,12.84
2022-12-31T16:15:18.628Z,12.84
2022-12-31T16:17:46.208Z,12.76
2022-12-31T16:20:12.842Z,12.74
2022-12-31T16:22:40.424Z,12.71
2022-12-31T16:27:53.674Z,12.65
2022-12-31T16:30:21.254Z,12.68
2022-12-31T16:32:48.281Z,12.60
2022-12-31T16:35:21.631Z,12.59
2022-12-31T16:37:50.108Z,12.61
2022-12-31T16:40:16.670Z,12.61
2022-12-31T16:42:44.633Z,12.57
2022-12-31T16:45:11.173Z,12.58
2022-12-31T16:47:37.597Z,12.54
2022-12-31T16:50:05.046Z,12.54
2022-12-31T16:52:31.856Z,12.53
2022-12-31T16:54:59.218Z,12.55
2022-12-31T16:57:25.657Z,12.57
2022-12-31T16:59:53.447Z,12.54
2022-12-31T17:02:20.083Z,12.59
2022-12-31T17:04:53.705Z,12.57
2022-12-31T17:07:22.278Z,12.55
2022-12-31T17:09:48.870Z,12.57
2022-12-31T17:12:15.336Z,12.56
2022-12-31T17:14:42.060Z,12.55
2022-12-31T17:17:08.648Z,12.61
2022-12-31T17:19:35.252Z,12.64
2022-12-31T17:22:01.782Z,12.64
2022-12-31T17:24:28.464Z,12.59
2022-12-31T17:26:55.053Z,12.58
2022-12-31T17:29:26.308Z,12.61
2022-12-31T17:31:53.102Z,12.65
2022-12-31T17:34:19.572Z,12.66
2022-12-31T17:36:46.435Z,12.65
2022-12-31T17:39:12.905Z,12.65
2022-12-31T17:41:39.349Z,12.64
2022-12-31T17:44:05.786Z,12.64
2022-12-31T17:46:32.256Z,12.64
2022-12-31T17:48:58.708Z,12.68
2022-12-31T17:51:26.055Z,12.68
2022-12-31T17:53:53.661Z,12.67
2022-12-31T17:56:21.236Z,12.65
2022-12-31T17:58:47.657Z,12.65
2022-12-31T18:01:14.532Z,12.63
2022-12-31T18:03:41.173Z,12.62
2022-12-31T18:06:12.917Z,12.57
2022-12-31T18:08:42.643Z,12.54
2022-12-31T18:11:10.812Z,12.49
2022-12-31T18:13:37.242Z,12.46
2022-12-31T18:16:03.711Z,12.46
2022-12-31T18:18:30.159Z,12.46
2022-12-31T18:20:56.570Z,12.41
2022-12-31T18:23:22.999Z,12.41
2022-12-31T18:25:49.668Z,12.40
2022-12-31T18:28:16.112Z,12.34
2022-12-31T18:30:42.557Z,12.33
2022-12-31T18:33:09.039Z,12.33
2022-12-31T18:38:21.904Z,12.28
2022-12-31T18:40:48.458Z,12.26
2022-12-31T18:43:14.906Z,12.25
2022-12-31T18:45:41.350Z,12.20
2022-12-31T18:48:07.797Z,12.18
2022-12-31T18:50:35.371Z,12.17
2022-12-31T18:53:02.972Z,12.23
2022-12-31T18:55:29.575Z,12.19
2022-12-31T18:57:56.028Z,12.17
2022-12-31T19:00:22.468Z,12.16
2022-12-31T19:02:48.919Z,12.17
2022-12-31T19:05:15.332Z,12.20
2022-12-31T19:07:41.753Z,12.23
2022-12-31T19:10:08.292Z,12.22
2022-12-31T19:12:34.735Z,12.18
2022-12-31T19:15:01.155Z,12.18
2022-12-31T19:17:27.576Z,12.23
2022-12-31T19:19:54.018Z,12.20
2022-12-31T19:22:20.422Z,12.16
2022-12-31T19:24:46.846Z,12.19
2022-12-31T19:27:13.281Z,12.15
2022-12-31T19:29:39.719Z,12.17
2022-12-31T19:32:06.442Z,12.16
2022-12-31T19:34:34.017Z,12.14
2022-12-31T19:37:00.623Z,12.12
2022-12-31T19:39:27.074Z,12.10
2022-12-31T19:41:58.844Z,12.07
2022-12-31T19:44:25.661Z,12.03
2022-12-31T19:46:52.061Z,12.07
2022-12-31T19:49:18.600Z,12.05
2022-12-31T19:51:45.011Z,12.09
2022-12-31T19:54:11.426Z,12.06
2022-12-31T19:56:37.848Z,12.06
2022-12-31T19:59:04.254Z,12.01
2022-12-31T20:01:30.730Z,11.98
2022-12-31T20:03:57.247Z,11.93
2022-12-31T20:06:23.689Z,11.95
2022-12-31T20:08:50.108Z,11.95
2022-12-31T20:11:16.521Z,11.93
2022-12-31T20:13:42.980Z,11.90
2022-12-31T20:16:09.481Z,11.86
2022-12-31T20:18:35.907Z,11.91
2022-12-31T20:21:02.434Z,11.87
2022-12-31T20:23:28.902Z,11.91
2022-12-31T20:25:55.347Z,11.90
2022-12-31T20:28:21.803Z,11.87
2022-12-31T20:30:48.305Z,11.87
2022-12-31T20:33:19.073Z,11.89
2022-12-31T20:35:45.811Z,11.87
2022-12-31T20:38:12.238Z,11.88
2022-12-31T20:40:44.608Z,11.89
2022-12-31T20:43:13.001Z,11.87
2022-12-31T20:45:39.404Z,11.92
2022-12-31T20:48:05.815Z,11.92
2022-12-31T20:50:32.227Z,11.85
2022-12-31T20:52:58.636Z,11.83
2022-12-31T20:55:25.067Z,11.81
2022-12-31T20:57:51.473Z,11.80
2022-12-31T21:00:17.890Z,11.81
2022-12-31T21:02:47.836Z,11.81
2022-12-31T21:05:18.197Z,11.79
2022-12-31T21:07:44.740Z,11.77
2022-12-31T21:10:11.182Z,11.75
2022-12-31T21:12:37.599Z,11.73
2022-12-31T21:15:04.004Z,11.78
2022-12-31T21:17:30.435Z,11.70
2022-12-31T21:19:56.857Z,11.70
2022-12-31T21:22:23.272Z,11.67
2022-12-31T21:24:49.688Z,11.66
2022-12-31T21:27:16.102Z,11.61
2022-12-31T21:30:16.406Z,11.60
2022-12-31T21:32:28.883Z,11.60
2022-12-31T21:35:31.166Z,11.53
2022-12-31T21:37:59.198Z,11.53
2022-12-31T21:40:26.908Z,11.54
2022-12-31T21:42:53.332Z,11.49
2022-12-31T21:45:19.748Z,11.48
2022-12-31T21:47:47.794Z,11.50
2022-12-31T21:50:14.367Z,11.46
2022-12-31T21:52:40.796Z,11.48
2022-12-31T21:55:07.234Z,11.48
2022-12-31T21:57:51.995Z,11.47
2022-12-31T22:00:42.374Z,11.55
2022-12-31T22:03:06.558Z,11.52
2022-12-31T22:05:33.059Z,11.51
2022-12-31T22:07:59.504Z,11.49
2022-12-31T22:10:25.953Z,11.57
2022-12-31T22:12:52.471Z,11.55
2022-12-31T22:15:18.903Z,11.57
2022-12-31T22:17:45.378Z,11.57
2022-12-31T22:20:28.114Z,11.59
2022-12-31T22:22:55.195Z,11.53
2022-12-31T22:25:21.703Z,11.56
2022-12-31T22:28:04.456Z,11.57
2022-12-31T22:30:34.545Z,11.53
2022-12-31T22:33:00.977Z,11.57
2022-12-31T22:35:27.392Z,11.60
2022-12-31T22:37:57.552Z,11.60
2022-12-31T22:40:25.549Z,11.61
2022-12-31T22:42:51.957Z,11.59
2022-12-31T22:45:18.465Z,11.64
2022-12-31T22:47:44.874Z,11.67
2022-12-31T22:50:11.300Z,11.71
2022-12-31T22:52:37.762Z,11.74
2022-12-31T22:55:04.176Z,11.78
2022-12-31T22:57:30.585Z,11.80
2022-12-31T22:59:57.029Z,11.82
2022-12-31T23:02:23.528Z,11.85
2022-12-31T23:04:49.955Z,11.89
2022-12-31T23:07:16.467Z,11.90
2022-12-31T23:09:42.901Z,11.94
2022-12-31T23:12:09.321Z,11.96
2022-12-31T23:14:35.770Z,11.95
2022-12-31T23:17:30.351Z,11.92
2022-12-31T23:19:48.607Z,11.91
2022-12-31T23:22:15.038Z,11.92
2022-12-31T23:24:41.460Z,11.87
2022-12-31T23:27:07.914Z,11.88
2022-12-31T23:29:34.335Z,11.82
2022-12-31T23:32:00.775Z,11.77
2022-12-31T23:34:27.241Z,11.73
2022-12-31T23:36:53.677Z,11.70
2022-12-31T23:39:20.216Z,11.71
2022-12-31T23:41:46.637Z,11.67
2022-12-31T23:44:13.027Z,11.60
2022-12-31T23:46:39.609Z,11.56
2022-12-31T23:49:06.071Z,11.54
2022-12-31T23:51:32.489Z,11.53
2022-12-31T23:53:58.901Z,11.55
2022-12-31T23:56:25.294Z,11.54
2022-12-31T23:58:51.721Z,11.60
